sensor_id;sensor_type;location;lat;lon;timestamp;P1;durP1;ratioP1;P2;durP2;ratioP2
34828;SDS011;21042;47.620;12.188;2023-06-14T00:00:46;3.83;;;2.55;;
34828;SDS011;21042;47.620;12.188;2023-06-14T00:03:14;7.35;;;2.90;;
34828;SDS011;21042;47.620;12.188;2023-06-14T00:05:44;6.72;;;3.00;;
34828;SDS011;21042;47.620;12.188;2023-06-14T00:08:12;7.07;;;3.30;;
34828;SDS011;21042;47.620;12.188;2023-06-14T00:10:40;6.70;;;3.00;;
34828;SDS011;21042;47.620;12.188;2023-06-14T00:13:08;5.35;;;2.72;;
34828;SDS011;21042;47.620;12.188;2023-06-14T00:18:03;6.22;;;3.10;;
34828;SDS011;21042;47.620;12.188;2023-06-14T00:20:31;5.68;;;2.85;;
34828;SDS011;21042;47.620;12.188;2023-06-14T00:22:59;4.32;;;2.83;;
34828;SDS011;21042;47.620;12.188;2023-06-14T00:25:27;5.15;;;2.70;;
34828;SDS011;21042;47.620;12.188;2023-06-14T00:27:56;4.85;;;2.85;;
34828;SDS011;21042;47.620;12.188;2023-06-14T00:30:23;3.88;;;2.63;;
34828;SDS011;21042;47.620;12.188;2023-06-14T00:32:51;4.15;;;2.70;;
34828;SDS011;21042;47.620;12.188;2023-06-14T00:35:18;5.97;;;2.97;;
34828;SDS011;21042;47.620;12.188;2023-06-14T00:37:45;6.65;;;2.83;;
34828;SDS011;21042;47.620;12.188;2023-06-14T00:40:12;3.78;;;2.65;;
34828;SDS011;21042;47.620;12.188;2023-06-14T00:42:39;4.72;;;2.75;;
34828;SDS011;21042;47.620;12.188;2023-06-14T00:45:06;5.07;;;3.58;;
34828;SDS011;21042;47.620;12.188;2023-06-14T00:47:33;7.72;;;2.92;;
34828;SDS011;21042;47.620;12.188;2023-06-14T00:50:02;4.03;;;2.63;;
34828;SDS011;21042;47.620;12.188;2023-06-14T00:52:32;6.28;;;2.88;;
34828;SDS011;21042;47.620;12.188;2023-06-14T00:54:59;6.80;;;3.15;;
34828;SDS011;21042;47.620;12.188;2023-06-14T00:57:28;8.65;;;2.78;;
34828;SDS011;21042;47.620;12.188;2023-06-14T00:59:58;4.78;;;3.30;;
34828;SDS011;21042;47.620;12.188;2023-06-14T01:02:25;4.38;;;2.70;;
34828;SDS011;21042;47.620;12.188;2023-06-14T01:04:52;3.92;;;2.53;;
34828;SDS011;21042;47.620;12.188;2023-06-14T01:08:05;4.47;;;2.70;;
34828;SDS011;21042;47.620;12.188;2023-06-14T01:15:36;5.13;;;2.63;;
34828;SDS011;21042;47.620;12.188;2023-06-14T01:18:04;3.65;;;2.63;;
34828;SDS011;21042;47.620;12.188;2023-06-14T01:20:33;4.78;;;2.90;;
34828;SDS011;21042;47.620;12.188;2023-06-14T01:23:04;4.75;;;2.75;;
34828;SDS011;21042;47.620;12.188;2023-06-14T01:25:31;5.43;;;2.58;;
34828;SDS011;21042;47.620;12.188;2023-06-14T01:28:05;4.40;;;2.88;;
34828;SDS011;21042;47.620;12.188;2023-06-14T01:30:37;5.22;;;3.42;;
34828;SDS011;21042;47.620;12.188;2023-06-14T01:33:14;4.38;;;3.03;;
34828;SDS011;21042;47.620;12.188;2023-06-14T01:35:44;5.80;;;2.97;;
34828;SDS011;21042;47.620;12.188;2023-06-14T01:38:13;5.15;;;2.60;;
34828;SDS011;21042;47.620;12.188;2023-06-14T01:40:42;6.72;;;3.10;;
34828;SDS011;21042;47.620;12.188;2023-06-14T01:43:11;6.10;;;2.83;;
34828;SDS011;21042;47.620;12.188;2023-06-14T01:45:40;5.72;;;3.50;;
34828;SDS011;21042;47.620;12.188;2023-06-14T01:48:11;4.97;;;2.97;;
34828;SDS011;21042;47.620;12.188;2023-06-14T01:50:38;7.07;;;3.30;;
34828;SDS011;21042;47.620;12.188;2023-06-14T01:53:09;5.82;;;2.95;;
34828;SDS011;21042;47.620;12.188;2023-06-14T01:55:37;6.15;;;2.67;;
34828;SDS011;21042;47.620;12.188;2023-06-14T01:58:05;6.10;;;2.85;;
34828;SDS011;21042;47.620;12.188;2023-06-14T02:00:32;4.60;;;2.83;;
34828;SDS011;21042;47.620;12.188;2023-06-14T02:02:59;7.90;;;2.80;;
34828;SDS011;21042;47.620;12.188;2023-06-14T02:05:26;5.65;;;2.88;;
34828;SDS011;21042;47.620;12.188;2023-06-14T02:07:53;5.93;;;3.33;;
34828;SDS011;21042;47.620;12.188;2023-06-14T02:10:20;6.13;;;2.95;;
34828;SDS011;21042;47.620;12.188;2023-06-14T02:12:47;4.85;;;3.22;;
34828;SDS011;21042;47.620;12.188;2023-06-14T02:15:14;6.65;;;3.00;;
34828;SDS011;21042;47.620;12.188;2023-06-14T02:17:44;6.18;;;3.10;;
34828;SDS011;21042;47.620;12.188;2023-06-14T02:20:16;6.15;;;2.95;;
34828;SDS011;21042;47.620;12.188;2023-06-14T02:22:44;7.45;;;3.17;;
34828;SDS011;21042;47.620;12.188;2023-06-14T02:25:11;4.45;;;2.70;;
34828;SDS011;21042;47.620;12.188;2023-06-14T02:27:39;4.70;;;2.80;;
34828;SDS011;21042;47.620;12.188;2023-06-14T02:30:06;7.90;;;2.85;;
34828;SDS011;21042;47.620;12.188;2023-06-14T02:32:33;5.97;;;3.58;;
34828;SDS011;21042;47.620;12.188;2023-06-14T02:35:02;9.13;;;3.00;;
34828;SDS011;21042;47.620;12.188;2023-06-14T02:37:29;6.25;;;3.03;;
34828;SDS011;21042;47.620;12.188;2023-06-14T02:39:56;3.97;;;2.63;;
34828;SDS011;21042;47.620;12.188;2023-06-14T02:42:23;5.82;;;3.00;;
34828;SDS011;21042;47.620;12.188;2023-06-14T02:44:50;6.38;;;3.05;;
34828;SDS011;21042;47.620;12.188;2023-06-14T02:47:18;4.97;;;2.88;;
34828;SDS011;21042;47.620;12.188;2023-06-14T02:49:45;4.05;;;2.92;;
34828;SDS011;21042;47.620;12.188;2023-06-14T02:52:14;6.10;;;3.35;;
34828;SDS011;21042;47.620;12.188;2023-06-14T02:54:42;7.15;;;3.03;;
34828;SDS011;21042;47.620;12.188;2023-06-14T02:57:09;6.07;;;2.80;;
34828;SDS011;21042;47.620;12.188;2023-06-14T02:59:38;10.35;;;3.28;;
34828;SDS011;21042;47.620;12.188;2023-06-14T03:02:05;4.88;;;3.15;;
34828;SDS011;21042;47.620;12.188;2023-06-14T03:04:33;11.10;;;3.72;;
34828;SDS011;21042;47.620;12.188;2023-06-14T03:07:07;6.40;;;2.75;;
34828;SDS011;21042;47.620;12.188;2023-06-14T03:09:39;5.28;;;3.10;;
34828;SDS011;21042;47.620;12.188;2023-06-14T03:12:09;9.50;;;3.80;;
34828;SDS011;21042;47.620;12.188;2023-06-14T03:14:36;5.30;;;3.22;;
34828;SDS011;21042;47.620;12.188;2023-06-14T03:17:03;5.05;;;3.28;;
34828;SDS011;21042;47.620;12.188;2023-06-14T03:19:33;8.43;;;3.55;;
34828;SDS011;21042;47.620;12.188;2023-06-14T03:22:01;7.55;;;3.67;;
34828;SDS011;21042;47.620;12.188;2023-06-14T03:24:30;5.07;;;3.10;;
34828;SDS011;21042;47.620;12.188;2023-06-14T03:27:07;4.80;;;3.15;;
34828;SDS011;21042;47.620;12.188;2023-06-14T03:29:38;4.72;;;3.00;;
34828;SDS011;21042;47.620;12.188;2023-06-14T03:32:06;7.55;;;3.20;;
34828;SDS011;21042;47.620;12.188;2023-06-14T03:34:38;6.63;;;3.20;;
34828;SDS011;21042;47.620;12.188;2023-06-14T03:37:07;6.82;;;3.10;;
34828;SDS011;21042;47.620;12.188;2023-06-14T03:39:34;7.65;;;3.50;;
34828;SDS011;21042;47.620;12.188;2023-06-14T03:44:29;8.55;;;3.40;;
34828;SDS011;21042;47.620;12.188;2023-06-14T03:46:56;7.20;;;3.17;;
34828;SDS011;21042;47.620;12.188;2023-06-14T03:49:25;3.95;;;2.72;;
34828;SDS011;21042;47.620;12.188;2023-06-14T03:51:52;4.80;;;3.03;;
34828;SDS011;21042;47.620;12.188;2023-06-14T03:54:22;8.57;;;3.13;;
34828;SDS011;21042;47.620;12.188;2023-06-14T03:56:52;4.95;;;3.53;;
34828;SDS011;21042;47.620;12.188;2023-06-14T03:59:19;5.13;;;3.25;;
34828;SDS011;21042;47.620;12.188;2023-06-14T04:01:46;6.95;;;3.08;;
34828;SDS011;21042;47.620;12.188;2023-06-14T04:04:15;6.20;;;3.42;;
34828;SDS011;21042;47.620;12.188;2023-06-14T04:06:44;5.18;;;3.28;;
34828;SDS011;21042;47.620;12.188;2023-06-14T04:09:14;6.05;;;3.33;;
34828;SDS011;21042;47.620;12.188;2023-06-14T04:11:41;7.68;;;2.90;;
34828;SDS011;21042;47.620;12.188;2023-06-14T04:14:07;8.73;;;3.25;;
34828;SDS011;21042;47.620;12.188;2023-06-14T04:16:34;6.43;;;4.15;;
34828;SDS011;21042;47.620;12.188;2023-06-14T04:19:01;6.43;;;3.30;;
34828;SDS011;21042;47.620;12.188;2023-06-14T04:21:28;6.75;;;3.83;;
34828;SDS011;21042;47.620;12.188;2023-06-14T04:23:58;5.30;;;3.63;;
34828;SDS011;21042;47.620;12.188;2023-06-14T04:26:29;5.95;;;3.67;;
34828;SDS011;21042;47.620;12.188;2023-06-14T04:29:00;5.30;;;3.53;;
34828;SDS011;21042;47.620;12.188;2023-06-14T04:31:31;6.95;;;3.47;;
34828;SDS011;21042;47.620;12.188;2023-06-14T04:34:05;6.20;;;3.38;;
34828;SDS011;21042;47.620;12.188;2023-06-14T04:36:34;6.07;;;3.25;;
34828;SDS011;21042;47.620;12.188;2023-06-14T04:39:03;5.32;;;3.08;;
34828;SDS011;21042;47.620;12.188;2023-06-14T04:41:30;5.70;;;3.33;;
34828;SDS011;21042;47.620;12.188;2023-06-14T04:43:59;5.63;;;3.00;;
34828;SDS011;21042;47.620;12.188;2023-06-14T04:46:30;9.18;;;3.50;;
34828;SDS011;21042;47.620;12.188;2023-06-14T04:48:58;9.35;;;3.70;;
34828;SDS011;21042;47.620;12.188;2023-06-14T04:51:28;6.25;;;3.42;;
34828;SDS011;21042;47.620;12.188;2023-06-14T04:54:00;6.40;;;4.10;;
34828;SDS011;21042;47.620;12.188;2023-06-14T04:56:28;6.18;;;4.07;;
34828;SDS011;21042;47.620;12.188;2023-06-14T04:58:56;9.05;;;4.88;;
34828;SDS011;21042;47.620;12.188;2023-06-14T05:01:23;5.72;;;4.18;;
34828;SDS011;21042;47.620;12.188;2023-06-14T05:03:51;10.40;;;4.63;;
34828;SDS011;21042;47.620;12.188;2023-06-14T05:06:18;6.72;;;4.50;;
34828;SDS011;21042;47.620;12.188;2023-06-14T05:08:45;10.23;;;4.82;;
34828;SDS011;21042;47.620;12.188;2023-06-14T05:11:12;10.10;;;5.05;;
34828;SDS011;21042;47.620;12.188;2023-06-14T05:13:39;7.85;;;4.97;;
34828;SDS011;21042;47.620;12.188;2023-06-14T05:16:08;7.50;;;5.18;;
34828;SDS011;21042;47.620;12.188;2023-06-14T05:18:36;7.60;;;4.75;;
34828;SDS011;21042;47.620;12.188;2023-06-14T05:21:04;6.20;;;4.13;;
34828;SDS011;21042;47.620;12.188;2023-06-14T05:25:58;9.20;;;4.55;;
34828;SDS011;21042;47.620;12.188;2023-06-14T05:28:25;10.45;;;4.55;;
34828;SDS011;21042;47.620;12.188;2023-06-14T05:30:52;12.85;;;4.85;;
34828;SDS011;21042;47.620;12.188;2023-06-14T05:33:19;8.77;;;4.47;;
34828;SDS011;21042;47.620;12.188;2023-06-14T05:35:46;8.98;;;4.78;;
34828;SDS011;21042;47.620;12.188;2023-06-14T05:38:13;13.10;;;4.57;;
34828;SDS011;21042;47.620;12.188;2023-06-14T05:40:39;11.88;;;5.03;;
34828;SDS011;21042;47.620;12.188;2023-06-14T05:43:06;9.32;;;4.70;;
34828;SDS011;21042;47.620;12.188;2023-06-14T05:45:33;7.55;;;4.53;;
34828;SDS011;21042;47.620;12.188;2023-06-14T05:48:00;10.95;;;4.75;;
34828;SDS011;21042;47.620;12.188;2023-06-14T05:50:26;13.68;;;5.80;;
34828;SDS011;21042;47.620;12.188;2023-06-14T05:52:53;11.73;;;5.07;;
34828;SDS011;21042;47.620;12.188;2023-06-14T05:55:20;7.20;;;4.60;;
34828;SDS011;21042;47.620;12.188;2023-06-14T05:57:47;6.95;;;4.43;;
34828;SDS011;21042;47.620;12.188;2023-06-14T06:00:14;10.45;;;4.65;;
34828;SDS011;21042;47.620;12.188;2023-06-14T06:02:42;6.93;;;4.15;;
34828;SDS011;21042;47.620;12.188;2023-06-14T06:05:11;6.88;;;3.67;;
34828;SDS011;21042;47.620;12.188;2023-06-14T06:07:39;8.23;;;4.93;;
34828;SDS011;21042;47.620;12.188;2023-06-14T06:10:06;7.25;;;4.07;;
34828;SDS011;21042;47.620;12.188;2023-06-14T06:12:33;8.98;;;4.28;;
34828;SDS011;21042;47.620;12.188;2023-06-14T06:15:00;9.95;;;4.65;;
34828;SDS011;21042;47.620;12.188;2023-06-14T06:17:27;11.85;;;4.85;;
34828;SDS011;21042;47.620;12.188;2023-06-14T06:20:07;8.55;;;4.65;;
34828;SDS011;21042;47.620;12.188;2023-06-14T06:22:35;8.13;;;4.28;;
34828;SDS011;21042;47.620;12.188;2023-06-14T06:25:02;10.00;;;4.35;;
34828;SDS011;21042;47.620;12.188;2023-06-14T06:27:29;7.65;;;3.88;;
34828;SDS011;21042;47.620;12.188;2023-06-14T06:29:56;7.15;;;4.30;;
34828;SDS011;21042;47.620;12.188;2023-06-14T06:32:23;12.70;;;4.85;;
34828;SDS011;21042;47.620;12.188;2023-06-14T06:34:50;10.45;;;4.53;;
34828;SDS011;21042;47.620;12.188;2023-06-14T06:37:19;10.48;;;4.13;;
34828;SDS011;21042;47.620;12.188;2023-06-14T06:39:45;6.82;;;4.28;;
34828;SDS011;21042;47.620;12.188;2023-06-14T06:42:13;7.05;;;4.40;;
34828;SDS011;21042;47.620;12.188;2023-06-14T06:44:42;8.35;;;4.53;;
34828;SDS011;21042;47.620;12.188;2023-06-14T06:47:09;11.18;;;4.85;;
34828;SDS011;21042;47.620;12.188;2023-06-14T06:49:37;8.00;;;4.05;;
34828;SDS011;21042;47.620;12.188;2023-06-14T06:52:05;6.80;;;3.70;;
34828;SDS011;21042;47.620;12.188;2023-06-14T06:54:33;6.28;;;3.50;;
34828;SDS011;21042;47.620;12.188;2023-06-14T06:57:00;6.63;;;3.65;;
34828;SDS011;21042;47.620;12.188;2023-06-14T06:59:27;6.43;;;3.85;;
34828;SDS011;21042;47.620;12.188;2023-06-14T07:01:54;8.48;;;4.22;;
34828;SDS011;21042;47.620;12.188;2023-06-14T07:04:21;5.95;;;3.47;;
34828;SDS011;21042;47.620;12.188;2023-06-14T07:06:48;10.85;;;4.10;;
34828;SDS011;21042;47.620;12.188;2023-06-14T07:09:15;9.90;;;3.47;;
34828;SDS011;21042;47.620;12.188;2023-06-14T07:11:43;5.40;;;3.88;;
34828;SDS011;21042;47.620;12.188;2023-06-14T07:14:10;6.00;;;3.47;;
34828;SDS011;21042;47.620;12.188;2023-06-14T07:16:37;8.85;;;3.25;;
34828;SDS011;21042;47.620;12.188;2023-06-14T07:19:04;13.60;;;3.72;;
34828;SDS011;21042;47.620;12.188;2023-06-14T07:21:31;5.03;;;3.03;;
34828;SDS011;21042;47.620;12.188;2023-06-14T07:23:58;4.82;;;3.35;;
34828;SDS011;21042;47.620;12.188;2023-06-14T07:26:24;4.45;;;3.33;;
34828;SDS011;21042;47.620;12.188;2023-06-14T07:28:52;10.23;;;3.90;;
34828;SDS011;21042;47.620;12.188;2023-06-14T07:31:19;7.35;;;3.13;;
34828;SDS011;21042;47.620;12.188;2023-06-14T07:33:46;9.00;;;3.95;;
34828;SDS011;21042;47.620;12.188;2023-06-14T07:36:12;35.08;;;7.05;;
34828;SDS011;21042;47.620;12.188;2023-06-14T07:38:39;12.40;;;4.22;;
34828;SDS011;21042;47.620;12.188;2023-06-14T07:41:07;8.57;;;3.80;;
34828;SDS011;21042;47.620;12.188;2023-06-14T07:43:34;4.78;;;3.28;;
34828;SDS011;21042;47.620;12.188;2023-06-14T07:46:01;12.80;;;3.67;;
34828;SDS011;21042;47.620;12.188;2023-06-14T07:48:33;7.13;;;3.97;;
34828;SDS011;21042;47.620;12.188;2023-06-14T07:51:01;6.85;;;3.67;;
34828;SDS011;21042;47.620;12.188;2023-06-14T07:53:28;8.32;;;4.13;;
34828;SDS011;21042;47.620;12.188;2023-06-14T07:55:55;5.18;;;3.63;;
34828;SDS011;21042;47.620;12.188;2023-06-14T07:58:22;5.20;;;3.40;;
34828;SDS011;21042;47.620;12.188;2023-06-14T08:00:49;5.57;;;3.60;;
34828;SDS011;21042;47.620;12.188;2023-06-14T08:03:16;9.43;;;3.47;;
34828;SDS011;21042;47.620;12.188;2023-06-14T08:05:42;5.55;;;3.25;;
34828;SDS011;21042;47.620;12.188;2023-06-14T08:08:09;5.68;;;3.65;;
34828;SDS011;21042;47.620;12.188;2023-06-14T08:10:36;15.13;;;3.90;;
34828;SDS011;21042;47.620;12.188;2023-06-14T08:13:03;7.80;;;3.92;;
34828;SDS011;21042;47.620;12.188;2023-06-14T08:15:29;4.32;;;3.20;;
34828;SDS011;21042;47.620;12.188;2023-06-14T08:17:56;5.15;;;3.38;;
34828;SDS011;21042;47.620;12.188;2023-06-14T08:20:25;6.55;;;3.70;;
34828;SDS011;21042;47.620;12.188;2023-06-14T08:22:52;6.93;;;3.67;;
34828;SDS011;21042;47.620;12.188;2023-06-14T08:25:23;7.13;;;3.45;;
34828;SDS011;21042;47.620;12.188;2023-06-14T08:27:49;9.25;;;4.78;;
34828;SDS011;21042;47.620;12.188;2023-06-14T08:30:16;6.78;;;3.53;;
34828;SDS011;21042;47.620;12.188;2023-06-14T08:32:43;9.02;;;3.72;;
34828;SDS011;21042;47.620;12.188;2023-06-14T08:35:11;6.45;;;3.63;;
34828;SDS011;21042;47.620;12.188;2023-06-14T08:37:39;6.18;;;3.40;;
34828;SDS011;21042;47.620;12.188;2023-06-14T08:40:28;5.28;;;3.30;;
34828;SDS011;21042;47.620;12.188;2023-06-14T08:42:56;6.22;;;3.42;;
34828;SDS011;21042;47.620;12.188;2023-06-14T08:45:24;7.63;;;3.10;;
34828;SDS011;21042;47.620;12.188;2023-06-14T08:47:53;9.70;;;3.67;;
34828;SDS011;21042;47.620;12.188;2023-06-14T08:50:25;5.25;;;3.40;;
34828;SDS011;21042;47.620;12.188;2023-06-14T08:52:55;9.15;;;3.47;;
34828;SDS011;21042;47.620;12.188;2023-06-14T08:55:27;13.13;;;3.90;;
34828;SDS011;21042;47.620;12.188;2023-06-14T08:57:56;7.07;;;3.58;;
34828;SDS011;21042;47.620;12.188;2023-06-14T09:00:25;6.57;;;3.00;;
34828;SDS011;21042;47.620;12.188;2023-06-14T09:02:52;6.05;;;3.78;;
34828;SDS011;21042;47.620;12.188;2023-06-14T09:05:26;7.60;;;3.38;;
34828;SDS011;21042;47.620;12.188;2023-06-14T09:07:53;7.07;;;3.80;;
34828;SDS011;21042;47.620;12.188;2023-06-14T09:10:22;10.35;;;4.50;;
34828;SDS011;21042;47.620;12.188;2023-06-14T09:12:49;8.05;;;3.45;;
34828;SDS011;21042;47.620;12.188;2023-06-14T09:15:17;11.50;;;3.58;;
34828;SDS011;21042;47.620;12.188;2023-06-14T09:17:44;8.95;;;3.80;;
34828;SDS011;21042;47.620;12.188;2023-06-14T09:20:11;5.28;;;3.65;;
34828;SDS011;21042;47.620;12.188;2023-06-14T09:22:45;6.85;;;3.83;;
34828;SDS011;21042;47.620;12.188;2023-06-14T09:25:13;6.25;;;4.00;;
34828;SDS011;21042;47.620;12.188;2023-06-14T09:27:58;7.65;;;3.95;;
34828;SDS011;21042;47.620;12.188;2023-06-14T09:30:25;6.15;;;3.97;;
34828;SDS011;21042;47.620;12.188;2023-06-14T09:32:52;6.38;;;3.47;;
34828;SDS011;21042;47.620;12.188;2023-06-14T09:35:20;9.57;;;3.65;;
34828;SDS011;21042;47.620;12.188;2023-06-14T09:37:47;6.18;;;3.60;;
34828;SDS011;21042;47.620;12.188;2023-06-14T09:40:14;5.97;;;3.85;;
34828;SDS011;21042;47.620;12.188;2023-06-14T09:42:47;7.03;;;3.58;;
34828;SDS011;21042;47.620;12.188;2023-06-14T09:45:14;5.63;;;3.53;;
34828;SDS011;21042;47.620;12.188;2023-06-14T09:47:45;5.63;;;3.00;;
34828;SDS011;21042;47.620;12.188;2023-06-14T09:50:31;4.18;;;3.22;;
34828;SDS011;21042;47.620;12.188;2023-06-14T09:53:00;9.90;;;3.20;;
34828;SDS011;21042;47.620;12.188;2023-06-14T09:55:31;8.65;;;3.40;;
34828;SDS011;21042;47.620;12.188;2023-06-14T09:58:06;8.70;;;3.38;;
34828;SDS011;21042;47.620;12.188;2023-06-14T10:00:34;6.07;;;3.15;;
34828;SDS011;21042;47.620;12.188;2023-06-14T10:03:05;9.13;;;3.40;;
34828;SDS011;21042;47.620;12.188;2023-06-14T10:05:38;8.65;;;3.10;;
34828;SDS011;21042;47.620;12.188;2023-06-14T10:08:10;8.55;;;2.85;;
34828;SDS011;21042;47.620;12.188;2023-06-14T10:10:44;6.07;;;3.67;;
34828;SDS011;21042;47.620;12.188;2023-06-14T10:13:11;5.45;;;3.17;;
34828;SDS011;21042;47.620;12.188;2023-06-14T10:15:52;11.00;;;3.45;;
34828;SDS011;21042;47.620;12.188;2023-06-14T10:18:39;6.03;;;3.03;;
34828;SDS011;21042;47.620;12.188;2023-06-14T10:21:41;9.60;;;3.63;;
34828;SDS011;21042;47.620;12.188;2023-06-14T10:24:09;6.18;;;3.17;;
34828;SDS011;21042;47.620;12.188;2023-06-14T10:26:53;8.90;;;3.03;;
34828;SDS011;21042;47.620;12.188;2023-06-14T10:29:26;4.80;;;3.03;;
34828;SDS011;21042;47.620;12.188;2023-06-14T10:31:58;6.80;;;3.30;;
34828;SDS011;21042;47.620;12.188;2023-06-14T10:34:27;5.40;;;3.30;;
34828;SDS011;21042;47.620;12.188;2023-06-14T10:37:04;8.70;;;3.25;;
34828;SDS011;21042;47.620;12.188;2023-06-14T10:39:38;4.30;;;3.30;;
34828;SDS011;21042;47.620;12.188;2023-06-14T10:42:08;7.97;;;3.63;;
34828;SDS011;21042;47.620;12.188;2023-06-14T10:44:40;5.53;;;3.30;;
34828;SDS011;21042;47.620;12.188;2023-06-14T10:47:10;4.95;;;3.55;;
34828;SDS011;21042;47.620;12.188;2023-06-14T10:50:09;4.65;;;3.30;;
34828;SDS011;21042;47.620;12.188;2023-06-14T10:55:12;7.63;;;3.83;;
34828;SDS011;21042;47.620;12.188;2023-06-14T10:57:52;4.38;;;3.58;;
34828;SDS011;21042;47.620;12.188;2023-06-14T11:00:25;4.43;;;3.30;;
34828;SDS011;21042;47.620;12.188;2023-06-14T11:08:27;9.95;;;3.45;;
34828;SDS011;21042;47.620;12.188;2023-06-14T11:11:05;9.45;;;3.30;;
34828;SDS011;21042;47.620;12.188;2023-06-14T11:13:33;5.50;;;3.28;;
34828;SDS011;21042;47.620;12.188;2023-06-14T11:16:09;8.02;;;3.40;;
34828;SDS011;21042;47.620;12.188;2023-06-14T11:18:38;6.07;;;3.25;;
34828;SDS011;21042;47.620;12.188;2023-06-14T11:21:05;9.88;;;4.35;;
34828;SDS011;21042;47.620;12.188;2023-06-14T11:23:32;6.60;;;3.22;;
34828;SDS011;21042;47.620;12.188;2023-06-14T11:25:59;6.70;;;3.33;;
34828;SDS011;21042;47.620;12.188;2023-06-14T11:28:35;6.00;;;3.20;;
34828;SDS011;21042;47.620;12.188;2023-06-14T11:31:06;9.40;;;3.17;;
34828;SDS011;21042;47.620;12.188;2023-06-14T11:33:34;5.63;;;3.20;;
34828;SDS011;21042;47.620;12.188;2023-06-14T11:36:01;6.68;;;3.50;;
34828;SDS011;21042;47.620;12.188;2023-06-14T11:38:30;5.50;;;3.25;;
34828;SDS011;21042;47.620;12.188;2023-06-14T11:41:01;11.68;;;3.92;;
34828;SDS011;21042;47.620;12.188;2023-06-14T11:43:27;8.65;;;3.03;;
34828;SDS011;21042;47.620;12.188;2023-06-14T11:45:55;3.72;;;3.08;;
34828;SDS011;21042;47.620;12.188;2023-06-14T11:48:40;5.72;;;2.97;;
34828;SDS011;21042;47.620;12.188;2023-06-14T11:51:08;6.45;;;3.30;;
34828;SDS011;21042;47.620;12.188;2023-06-14T11:53:35;4.65;;;3.22;;
34828;SDS011;21042;47.620;12.188;2023-06-14T11:56:02;3.85;;;2.97;;
34828;SDS011;21042;47.620;12.188;2023-06-14T12:00:56;8.60;;;3.38;;
34828;SDS011;21042;47.620;12.188;2023-06-14T12:03:24;9.52;;;3.40;;
34828;SDS011;21042;47.620;12.188;2023-06-14T12:06:06;7.95;;;3.20;;
34828;SDS011;21042;47.620;12.188;2023-06-14T12:08:35;6.20;;;3.17;;
34828;SDS011;21042;47.620;12.188;2023-06-14T12:11:07;5.28;;;3.78;;
34828;SDS011;21042;47.620;12.188;2023-06-14T12:13:40;4.35;;;3.35;;
34828;SDS011;21042;47.620;12.188;2023-06-14T12:16:08;6.65;;;3.63;;
34828;SDS011;21042;47.620;12.188;2023-06-14T12:18:36;8.25;;;3.20;;
34828;SDS011;21042;47.620;12.188;2023-06-14T12:21:04;6.30;;;3.95;;
34828;SDS011;21042;47.620;12.188;2023-06-14T12:23:43;6.05;;;3.72;;
34828;SDS011;21042;47.620;12.188;2023-06-14T12:26:16;5.53;;;3.13;;
34828;SDS011;21042;47.620;12.188;2023-06-14T12:28:46;5.20;;;3.88;;
34828;SDS011;21042;47.620;12.188;2023-06-14T12:31:14;6.65;;;3.30;;
34828;SDS011;21042;47.620;12.188;2023-06-14T12:33:44;6.70;;;3.30;;
34828;SDS011;21042;47.620;12.188;2023-06-14T12:36:15;6.55;;;3.40;;
34828;SDS011;21042;47.620;12.188;2023-06-14T12:38:43;4.63;;;3.42;;
34828;SDS011;21042;47.620;12.188;2023-06-14T12:41:09;9.57;;;3.22;;
34828;SDS011;21042;47.620;12.188;2023-06-14T12:43:36;5.97;;;3.40;;
34828;SDS011;21042;47.620;12.188;2023-06-14T12:48:30;5.95;;;3.97;;
34828;SDS011;21042;47.620;12.188;2023-06-14T12:50:57;5.40;;;3.70;;
34828;SDS011;21042;47.620;12.188;2023-06-14T12:53:24;7.70;;;3.78;;
34828;SDS011;21042;47.620;12.188;2023-06-14T12:55:51;3.80;;;3.10;;
34828;SDS011;21042;47.620;12.188;2023-06-14T12:58:18;5.80;;;3.72;;
34828;SDS011;21042;47.620;12.188;2023-06-14T13:00:46;8.68;;;3.63;;
34828;SDS011;21042;47.620;12.188;2023-06-14T13:03:13;6.95;;;3.42;;
34828;SDS011;21042;47.620;12.188;2023-06-14T13:05:41;7.40;;;3.38;;
34828;SDS011;21042;47.620;12.188;2023-06-14T13:08:09;5.97;;;3.40;;
34828;SDS011;21042;47.620;12.188;2023-06-14T13:10:36;4.80;;;3.33;;
34828;SDS011;21042;47.620;12.188;2023-06-14T13:13:02;6.32;;;3.60;;
34828;SDS011;21042;47.620;12.188;2023-06-14T13:17:57;6.22;;;3.55;;
34828;SDS011;21042;47.620;12.188;2023-06-14T13:20:23;7.78;;;3.42;;
34828;SDS011;21042;47.620;12.188;2023-06-14T13:22:50;6.00;;;3.72;;
34828;SDS011;21042;47.620;12.188;2023-06-14T13:25:17;7.35;;;3.58;;
34828;SDS011;21042;47.620;12.188;2023-06-14T13:27:44;6.68;;;3.50;;
34828;SDS011;21042;47.620;12.188;2023-06-14T13:30:11;8.93;;;3.97;;
34828;SDS011;21042;47.620;12.188;2023-06-14T13:32:38;8.52;;;3.92;;
34828;SDS011;21042;47.620;12.188;2023-06-14T13:35:05;4.72;;;3.47;;
34828;SDS011;21042;47.620;12.188;2023-06-14T13:39:59;4.32;;;3.30;;
34828;SDS011;21042;47.620;12.188;2023-06-14T13:44:53;5.38;;;3.70;;
34828;SDS011;21042;47.620;12.188;2023-06-14T13:47:20;6.80;;;4.07;;
34828;SDS011;21042;47.620;12.188;2023-06-14T13:49:47;8.30;;;3.83;;
34828;SDS011;21042;47.620;12.188;2023-06-14T13:52:14;6.50;;;3.47;;
34828;SDS011;21042;47.620;12.188;2023-06-14T13:54:40;6.03;;;3.60;;
34828;SDS011;21042;47.620;12.188;2023-06-14T13:57:08;5.78;;;3.55;;
34828;SDS011;21042;47.620;12.188;2023-06-14T13:59:39;7.60;;;3.60;;
34828;SDS011;21042;47.620;12.188;2023-06-14T14:02:06;4.88;;;3.50;;
34828;SDS011;21042;47.620;12.188;2023-06-14T14:04:34;5.93;;;3.40;;
34828;SDS011;21042;47.620;12.188;2023-06-14T14:07:02;6.43;;;3.92;;
34828;SDS011;21042;47.620;12.188;2023-06-14T14:09:30;10.55;;;4.38;;
34828;SDS011;21042;47.620;12.188;2023-06-14T14:11:57;6.22;;;3.55;;
34828;SDS011;21042;47.620;12.188;2023-06-14T14:14:24;17.05;;;3.88;;
34828;SDS011;21042;47.620;12.188;2023-06-14T14:16:52;11.98;;;4.18;;
34828;SDS011;21042;47.620;12.188;2023-06-14T14:19:19;7.40;;;3.10;;
34828;SDS011;21042;47.620;12.188;2023-06-14T14:21:47;5.53;;;3.50;;
34828;SDS011;21042;47.620;12.188;2023-06-14T14:24:14;5.70;;;3.50;;
34828;SDS011;21042;47.620;12.188;2023-06-14T14:26:42;6.47;;;3.50;;
34828;SDS011;21042;47.620;12.188;2023-06-14T14:29:09;4.50;;;3.38;;
34828;SDS011;21042;47.620;12.188;2023-06-14T14:31:37;5.40;;;3.13;;
34828;SDS011;21042;47.620;12.188;2023-06-14T14:34:04;6.47;;;3.83;;
34828;SDS011;21042;47.620;12.188;2023-06-14T14:36:31;11.13;;;3.40;;
34828;SDS011;21042;47.620;12.188;2023-06-14T14:39:00;6.03;;;3.70;;
34828;SDS011;21042;47.620;12.188;2023-06-14T14:41:27;4.85;;;3.28;;
34828;SDS011;21042;47.620;12.188;2023-06-14T14:43:54;4.82;;;3.10;;
34828;SDS011;21042;47.620;12.188;2023-06-14T14:46:21;7.32;;;3.60;;
34828;SDS011;21042;47.620;12.188;2023-06-14T14:48:48;7.20;;;3.40;;
34828;SDS011;21042;47.620;12.188;2023-06-14T14:51:14;5.75;;;3.42;;
34828;SDS011;21042;47.620;12.188;2023-06-14T14:53:41;6.03;;;3.33;;
34828;SDS011;21042;47.620;12.188;2023-06-14T14:56:08;6.50;;;3.45;;
34828;SDS011;21042;47.620;12.188;2023-06-14T14:58:34;7.43;;;3.70;;
34828;SDS011;21042;47.620;12.188;2023-06-14T15:03:28;4.38;;;3.60;;
34828;SDS011;21042;47.620;12.188;2023-06-14T15:05:55;8.40;;;3.55;;
34828;SDS011;21042;47.620;12.188;2023-06-14T15:08:22;4.40;;;3.22;;
34828;SDS011;21042;47.620;12.188;2023-06-14T15:10:49;8.70;;;3.38;;
34828;SDS011;21042;47.620;12.188;2023-06-14T15:13:15;3.45;;;3.10;;
34828;SDS011;21042;47.620;12.188;2023-06-14T15:15:42;7.32;;;3.85;;
34828;SDS011;21042;47.620;12.188;2023-06-14T15:18:09;8.57;;;3.42;;